| time (UTC) | temp F | wind direction | speed knots | gust knots | rain 1hr in | rain 24hr in | rain mn in | humidity % | barometer mb |
| 20260509043357 | 55 | 73 | 0.9 | 1.7 | 0.01 | 0.00 | 0.00 | 99 | 1010.0 |
| 20260509042856 | 55 | 79 | 0.0 | 0.0 | 0.01 | 0.00 | 0.00 | 99 | 1010.0 |
| 20260509042356 | 55 | 0 | 0.0 | 0.0 | 0.01 | 0.00 | 0.00 | 98 | 1010.0 |
| 20260509041856 | 55 | 40 | 0.0 | 0.9 | 0.00 | 0.00 | 0.00 | 98 | 1010.0 |
| 20260509041357 | 55 | 111 | 0.0 | 0.0 | 0.00 | 0.00 | 0.00 | 98 | 1010.0 |
| 20260509040857 | 55 | 97 | 0.0 | 0.9 | 0.00 | 0.00 | 0.00 | 97 | 1010.0 |
| 20260509040356 | 55 | 120 | 0.0 | 0.0 | 0.00 | 0.00 | 0.00 | 97 | 1010.0 |
| 20260509035856 | 55 | 0 | 0.0 | 0.0 | 0.00 | 0.00 | 0.02 | 96 | 1010.0 |
| 20260509035356 | 55 | 76 | 0.9 | 1.7 | 0.00 | 0.00 | 0.02 | 96 | 1010.0 |
| 20260509034856 | 55 | 0 | 0.0 | 0.0 | 0.01 | 0.00 | 0.02 | 95 | 1010.0 |
| 20260509034356 | 56 | 105 | 0.0 | 0.9 | 0.02 | 0.00 | 0.02 | 95 | 1010.0 |
| 20260509033857 | 56 | 0 | 0.0 | 0.0 | 0.00 | 0.00 | 0.02 | 95 | 1010.0 |
| 20260509033357 | 56 | 8 | 0.0 | 0.9 | 0.00 | 0.00 | 0.02 | 95 | 1010.0 |
| 20260509032856 | 56 | 0 | 0.0 | 0.0 | 0.00 | 0.00 | 0.02 | 94 | 1010.0 |
| 20260509032356 | 56 | 0 | 0.0 | 0.0 | 0.00 | 0.00 | 0.02 | 93 | 1010.0 |
| 20260509031856 | 56 | 71 | 0.0 | 0.9 | 0.00 | 0.00 | 0.01 | 93 | 1010.0 |
| 20260509031356 | 56 | 0 | 0.0 | 0.0 | 0.01 | 0.00 | 0.01 | 92 | 1011.0 |
| 20260509030856 | 56 | 0 | 0.0 | 0.0 | 0.00 | 0.00 | 0.01 | 91 | 1011.0 |
| 20260509030357 | 56 | 0 | 0.0 | 0.0 | 0.00 | 0.00 | 0.01 | 91 | 1011.0 |
| 20260509025857 | 56 | 258 | 0.9 | 2.6 | 0.00 | 0.00 | 0.01 | 91 | 1011.0 |
| 20260509025356 | 56 | 317 | 0.0 | 0.9 | 0.00 | 0.00 | 0.01 | 90 | 1011.0 |
| 20260509024856 | 56 | 265 | 0.0 | 0.9 | 0.00 | 0.00 | 0.01 | 90 | 1011.0 |
| 20260509024356 | 57 | 282 | 0.9 | 1.7 | 0.00 | 0.00 | 0.01 | 89 | 1011.0 |
| 20260509023857 | 57 | 237 | 0.0 | 0.9 | 0.00 | 0.00 | 0.01 | 89 | 1011.0 |
| 20260509023356 | 57 | 322 | 0.0 | 1.7 | 0.00 | 0.00 | 0.01 | 88 | 1011.0 |
| 20260509022856 | 57 | 240 | 1.7 | 1.7 | 0.00 | 0.00 | 0.01 | 87 | 1011.0 |
| 20260509022356 | 57 | 269 | 0.9 | 1.7 | 0.00 | 0.00 | 0.01 | 87 | 1011.0 |
| 20260509021856 | 57 | 232 | 0.0 | 0.9 | 0.00 | 0.00 | 0.01 | 86 | 1011.0 |
| 20260509021356 | 57 | 289 | 0.9 | 1.7 | 0.00 | 0.00 | 0.01 | 86 | 1011.0 |
| 20260509020857 | 58 | 272 | 1.7 | 3.5 | 0.00 | 0.00 | 0.01 | 85 | 1011.0 |
| 20260509020356 | 58 | 32 | 0.9 | 2.6 | 0.00 | 0.00 | 0.01 | 85 | 1011.0 |
| 20260509015856 | 58 | 281 | 0.9 | 1.7 | 0.00 | 0.00 | 0.01 | 84 | 1011.0 |
| 20260509015357 | 58 | 265 | 0.0 | 0.9 | 0.00 | 0.00 | 0.01 | 84 | 1011.0 |
| 20260509014856 | 59 | 354 | 0.0 | 1.7 | 0.00 | 0.00 | 0.01 | 82 | 1010.0 |
| 20260509014356 | 59 | 249 | 0.0 | 0.9 | 0.00 | 0.00 | 0.01 | 81 | 1010.0 |
| 20260509013857 | 59 | 300 | 0.9 | 1.7 | 0.01 | 0.00 | 0.01 | 81 | 1010.0 |
| 20260509013356 | 59 | 327 | 0.0 | 0.9 | 0.00 | 0.00 | 0.01 | 79 | 1010.0 |
| 20260509012857 | 60 | 113 | 1.7 | 3.5 | 0.00 | 0.00 | 0.01 | 78 | 1010.0 |
| 20260509012356 | 60 | 31 | 0.0 | 0.9 | 0.00 | 0.00 | 0.01 | 77 | 1010.0 |
| 20260509011857 | 60 | 161 | 0.0 | 0.9 | 0.00 | 0.00 | 0.01 | 76 | 1010.0 |
| 20260509011357 | 60 | 42 | 0.0 | 0.0 | 0.00 | 0.00 | 0.01 | 76 | 1010.0 |
| 20260509010856 | 60 | 5 | 0.0 | 1.7 | 0.00 | 0.00 | 0.01 | 74 | 1010.0 |
| 20260509010358 | 60 | 245 | 0.9 | 1.7 | 0.00 | 0.00 | 0.01 | 73 | 1010.0 |
| 20260509005856 | 61 | 142 | 0.0 | 0.9 | 0.00 | 0.00 | 0.01 | 74 | 1010.0 |
| 20260509005356 | 61 | 135 | 0.9 | 1.7 | 0.00 | 0.00 | 0.00 | 73 | 1010.0 |
| 20260509004856 | 61 | 80 | 0.0 | 1.7 | 0.00 | 0.00 | 0.00 | 71 | 1010.0 |
| 20260509004356 | 62 | 282 | 0.0 | 0.9 | 0.00 | 0.00 | 0.00 | 69 | 1010.0 |
| 20260509003857 | 62 | 0 | 0.0 | 0.0 | 0.00 | 0.00 | 0.00 | 68 | 1010.0 |
| 20260509003356 | 62 | 0 | 0.0 | 0.0 | 0.00 | 0.00 | 0.00 | 67 | 1010.0 |
| 20260509002856 | 62 | 251 | 0.0 | 0.9 | 0.00 | 0.00 | 0.00 | 65 | 1010.0 |
| 20260509002356 | 62 | 295 | 0.0 | 0.9 | 0.00 | 0.00 | 0.00 | 64 | 1010.0 |
| 20260509001857 | 62 | 193 | 0.0 | 0.0 | 0.00 | 0.00 | 0.00 | 63 | 1010.0 |
| 20260509001356 | 62 | 0 | 0.0 | 0.0 | 0.00 | 0.00 | 0.00 | 63 | 1010.0 |
| 20260509000857 | 63 | 0 | 0.0 | 0.0 | 0.00 | 0.00 | 0.00 | 62 | 1010.0 |
| 20260509000356 | 63 | 0 | 0.0 | 0.0 | 0.00 | 0.00 | 0.00 | 63 | 1010.0 |
| 20260508235856 | 63 | 0 | 0.0 | 0.0 | 0.00 | 0.00 | 0.00 | 64 | 1010.0 |
| 20260508235356 | 63 | 0 | 0.0 | 0.0 | 0.00 | 0.00 | 0.00 | 64 | 1010.0 |
| 20260508234856 | 64 | 0 | 0.0 | 0.0 | 0.00 | 0.00 | 0.00 | 63 | 1010.0 |
| 20260508234356 | 64 | 337 | 0.0 | 0.9 | 0.00 | 0.00 | 0.00 | 60 | 1010.0 |
| 20260508233857 | 64 | 280 | 0.0 | 0.0 | 0.00 | 0.00 | 0.00 | 59 | 1010.0 |
| 20260508233356 | 64 | 138 | 0.0 | 0.9 | 0.00 | 0.00 | 0.00 | 59 | 1010.0 |
| 20260508232856 | 64 | 0 | 0.0 | 0.0 | 0.00 | 0.00 | 0.00 | 58 | 1010.0 |
| 20260508232356 | 64 | 0 | 0.0 | 0.0 | 0.00 | 0.00 | 0.00 | 59 | 1010.0 |
| 20260508231857 | 65 | 115 | 0.0 | 0.9 | 0.00 | 0.00 | 0.00 | 60 | 1010.0 |
| 20260508231356 | 65 | 108 | 0.0 | 0.0 | 0.00 | 0.00 | 0.00 | 61 | 1010.0 |
| 20260508230857 | 65 | 106 | 0.0 | 0.0 | 0.00 | 0.00 | 0.00 | 59 | 1010.0 |
| 20260508230356 | 65 | 166 | 0.0 | 0.0 | 0.00 | 0.00 | 0.00 | 59 | 1010.0 |
| 20260508225857 | 65 | 0 | 0.0 | 0.0 | 0.00 | 0.00 | 0.00 | 61 | 1010.0 |
| 20260508225356 | 65 | 102 | 0.0 | 0.9 | 0.00 | 0.00 | 0.00 | 61 | 1010.0 |
| 20260508224857 | 65 | 113 | 0.0 | 0.9 | 0.00 | 0.00 | 0.00 | 61 | 1010.0 |
| 20260508224356 | 65 | 118 | 0.0 | 0.0 | 0.00 | 0.00 | 0.00 | 58 | 1010.0 |
| 20260508223857 | 66 | 130 | 0.0 | 1.7 | 0.00 | 0.00 | 0.00 | 60 | 1010.0 |
| 20260508223356 | 66 | 137 | 0.0 | 0.9 | 0.00 | 0.00 | 0.00 | 58 | 1010.0 |
| 20260508222857 | 66 | 132 | 0.9 | 1.7 | 0.00 | 0.00 | 0.00 | 57 | 1009.0 |
| 20260508222356 | 67 | 0 | 0.0 | 0.0 | 0.00 | 0.00 | 0.00 | 56 | 1010.0 |
| 20260508221856 | 67 | 187 | 0.0 | 1.7 | 0.00 | 0.00 | 0.00 | 54 | 1009.0 |
| 20260508221356 | 67 | 187 | 0.0 | 0.9 | 0.00 | 0.00 | 0.00 | 53 | 1009.0 |
| 20260508220856 | 67 | 0 | 0.0 | 0.0 | 0.00 | 0.00 | 0.00 | 52 | 1009.0 |
| 20260508220357 | 67 | 148 | 0.0 | 0.0 | 0.00 | 0.00 | 0.00 | 54 | 1009.0 |
| 20260508215856 | 67 | 151 | 0.9 | 1.7 | 0.00 | 0.00 | 0.00 | 53 | 1009.0 |
| 20260508215357 | 68 | 155 | 0.9 | 0.9 | 0.00 | 0.00 | 0.00 | 52 | 1009.0 |
| 20260508214856 | 68 | 171 | 0.0 | 1.7 | 0.00 | 0.00 | 0.00 | 50 | 1009.0 |
| 20260508214356 | 68 | 199 | 0.0 | 1.7 | 0.00 | 0.00 | 0.00 | 52 | 1009.0 |
| 20260508213856 | 68 | 192 | 0.9 | 1.7 | 0.00 | 0.00 | 0.00 | 48 | 1009.0 |
| 20260508213356 | 68 | 218 | 0.0 | 0.9 | 0.00 | 0.00 | 0.00 | 49 | 1009.0 |
| 20260508212856 | 68 | 139 | 0.9 | 2.6 | 0.00 | 0.00 | 0.00 | 50 | 1009.0 |
| 20260508212357 | 68 | 148 | 0.0 | 1.7 | 0.00 | 0.00 | 0.00 | 50 | 1009.0 |
| 20260508211857 | 68 | 207 | 0.0 | 1.7 | 0.00 | 0.00 | 0.00 | 50 | 1010.0 |
| 20260508211357 | 69 | 184 | 1.7 | 3.5 | 0.00 | 0.00 | 0.00 | 48 | 1010.0 |
| 20260508210856 | 69 | 177 | 0.9 | 2.6 | 0.00 | 0.00 | 0.00 | 48 | 1010.0 |
| 20260508210356 | 69 | 145 | 0.0 | 0.9 | 0.00 | 0.00 | 0.00 | 49 | 1010.0 |
| 20260508205857 | 69 | 178 | 0.0 | 2.6 | 0.00 | 0.00 | 0.00 | 52 | 1010.0 |
| 20260508205356 | 69 | 173 | 0.0 | 1.7 | 0.00 | 0.00 | 0.00 | 49 | 1010.0 |
| 20260508204856 | 69 | 161 | 0.9 | 1.7 | 0.00 | 0.00 | 0.00 | 47 | 1010.0 |
| 20260508204356 | 69 | 138 | 0.9 | 2.6 | 0.00 | 0.00 | 0.00 | 47 | 1010.0 |
| 20260508203856 | 69 | 0 | 0.0 | 0.0 | 0.00 | 0.00 | 0.00 | 48 | 1010.0 |
| 20260508203357 | 69 | 267 | 0.0 | 0.9 | 0.00 | 0.00 | 0.00 | 48 | 1010.0 |
| 20260508202856 | 68 | 165 | 0.9 | 2.6 | 0.00 | 0.00 | 0.00 | 48 | 1010.0 |
| 20260508202356 | 68 | 185 | 0.9 | 2.6 | 0.00 | 0.00 | 0.00 | 48 | 1010.0 |
| 20260508201856 | 69 | 176 | 0.9 | 2.6 | 0.00 | 0.00 | 0.00 | 47 | 1011.0 |
| 20260508201357 | 69 | 163 | 0.9 | 2.6 | 0.00 | 0.00 | 0.00 | 48 | 1011.0 |
| 20260508200856 | 69 | 289 | 0.0 | 0.9 | 0.00 | 0.00 | 0.00 | 46 | 1011.0 |
| 20260508200357 | 70 | 134 | 0.0 | 1.7 | 0.00 | 0.00 | 0.00 | 49 | 1011.0 |
| 20260508195857 | 69 | 230 | 0.9 | 2.6 | 0.00 | 0.00 | 0.00 | 48 | 1011.0 |
| 20260508195356 | 69 | 144 | 0.9 | 2.6 | 0.00 | 0.00 | 0.00 | 48 | 1011.0 |
| 20260508194856 | 69 | 213 | 0.9 | 1.7 | 0.00 | 0.00 | 0.00 | 49 | 1011.0 |
| 20260508194357 | 68 | 215 | 0.0 | 2.6 | 0.00 | 0.00 | 0.00 | 45 | 1011.0 |
| 20260508193857 | 68 | 142 | 0.0 | 0.9 | 0.00 | 0.00 | 0.00 | 47 | 1011.0 |
| 20260508193356 | 68 | 194 | 1.7 | 3.5 | 0.00 | 0.00 | 0.00 | 45 | 1011.0 |
| 20260508192856 | 68 | 206 | 0.9 | 3.5 | 0.00 | 0.00 | 0.00 | 46 | 1011.0 |
| 20260508192356 | 69 | 182 | 1.7 | 3.5 | 0.00 | 0.00 | 0.00 | 46 | 1011.0 |
| 20260508191859 | 69 | 126 | 0.0 | 1.7 | 0.00 | 0.00 | 0.00 | 47 | 1011.0 |
| 20260508191356 | 69 | 155 | 0.9 | 1.7 | 0.00 | 0.00 | 0.00 | 45 | 1011.0 |
| 20260508190856 | 69 | 172 | 1.7 | 3.5 | 0.00 | 0.00 | 0.00 | 44 | 1011.0 |
| 20260508190356 | 70 | 158 | 0.9 | 3.5 | 0.00 | 0.00 | 0.00 | 44 | 1011.0 |
| 20260508185856 | 70 | 150 | 0.9 | 1.7 | 0.00 | 0.00 | 0.00 | 45 | 1011.0 |
| 20260508185356 | 71 | 190 | 0.9 | 2.6 | 0.00 | 0.00 | 0.00 | 44 | 1011.0 |
| 20260508184856 | 72 | 155 | 1.7 | 2.6 | 0.00 | 0.00 | 0.00 | 45 | 1011.0 |
| 20260508184357 | 73 | 169 | 2.6 | 3.5 | 0.00 | 0.00 | 0.00 | 41 | 1012.0 |
| 20260508183857 | 72 | 154 | 0.9 | 2.6 | 0.00 | 0.00 | 0.00 | 46 | 1012.0 |
| 20260508183356 | 72 | 179 | 1.7 | 3.5 | 0.00 | 0.00 | 0.00 | 45 | 1012.0 |
| 20260508182858 | 71 | 145 | 3.5 | 5.2 | 0.00 | 0.00 | 0.00 | 44 | 1012.0 |
| 20260508182356 | 70 | 154 | 1.7 | 4.3 | 0.00 | 0.00 | 0.00 | 44 | 1012.0 |
| 20260508181856 | 69 | 166 | 2.6 | 4.3 | 0.00 | 0.00 | 0.00 | 44 | 1012.0 |
| 20260508181356 | 68 | 129 | 0.9 | 2.6 | 0.00 | 0.00 | 0.00 | 48 | 1012.0 |
| 20260508180856 | 69 | 193 | 1.7 | 3.5 | 0.00 | 0.00 | 0.00 | 45 | 1012.0 |
| 20260508180356 | 69 | 200 | 0.9 | 2.6 | 0.00 | 0.00 | 0.00 | 46 | 1012.0 |
| 20260508175858 | 70 | 164 | 1.7 | 2.6 | 0.00 | 0.00 | 0.00 | 47 | 1012.0 |
| 20260508175356 | 71 | 259 | 1.7 | 5.2 | 0.00 | 0.00 | 0.00 | 45 | 1012.0 |
| 20260508174857 | 71 | 163 | 0.9 | 3.5 | 0.00 | 0.00 | 0.00 | 46 | 1012.0 |
| 20260508174357 | 70 | 278 | 3.5 | 6.1 | 0.00 | 0.00 | 0.00 | 47 | 1012.0 |
| 20260508173856 | 70 | 129 | 1.7 | 3.5 | 0.00 | 0.00 | 0.00 | 49 | 1013.0 |
| 20260508173358 | 69 | 192 | 1.7 | 2.6 | 0.00 | 0.00 | 0.00 | 50 | 1013.0 |
| 20260508172856 | 69 | 184 | 0.9 | 2.6 | 0.00 | 0.00 | 0.00 | 50 | 1013.0 |
| 20260508172356 | 69 | 230 | 0.9 | 2.6 | 0.00 | 0.00 | 0.00 | 49 | 1013.0 |
| 20260508171857 | 70 | 214 | 0.9 | 1.7 | 0.00 | 0.00 | 0.00 | 47 | 1013.0 |
| 20260508171356 | 71 | 164 | 1.7 | 4.3 | 0.00 | 0.00 | 0.00 | 47 | 1013.0 |
| 20260508170856 | 70 | 153 | 1.7 | 2.6 | 0.00 | 0.00 | 0.00 | 46 | 1013.0 |
| 20260508170356 | 69 | 153 | 1.7 | 3.5 | 0.00 | 0.00 | 0.00 | 48 | 1013.0 |
| 20260508165856 | 69 | 258 | 2.6 | 5.2 | 0.00 | 0.00 | 0.00 | 49 | 1013.0 |
| 20260508165357 | 68 | 140 | 0.9 | 1.7 | 0.00 | 0.00 | 0.00 | 49 | 1013.0 |
| 20260508164856 | 69 | 150 | 0.9 | 1.7 | 0.00 | 0.00 | 0.00 | 48 | 1013.0 |
| 20260508164356 | 69 | 229 | 1.7 | 3.5 | 0.00 | 0.00 | 0.00 | 47 | 1014.0 |
| 20260508163857 | 69 | 265 | 1.7 | 5.2 | 0.00 | 0.00 | 0.00 | 50 | 1014.0 |
| 20260508163357 | 69 | 219 | 1.7 | 3.5 | 0.00 | 0.00 | 0.00 | 50 | 1014.0 |
| 20260508162857 | 69 | 156 | 1.7 | 2.6 | 0.00 | 0.00 | 0.00 | 47 | 1014.0 |
| 20260508162357 | 69 | 203 | 1.7 | 3.5 | 0.00 | 0.00 | 0.00 | 48 | 1014.0 |
| 20260508161858 | 69 | 233 | 2.6 | 7.0 | 0.00 | 0.00 | 0.00 | 50 | 1014.0 |
| 20260508161356 | 70 | 274 | 1.7 | 4.3 | 0.00 | 0.00 | 0.00 | 48 | 1014.0 |
| 20260508160857 | 69 | 163 | 1.7 | 3.5 | 0.00 | 0.00 | 0.00 | 47 | 1014.0 |
| 20260508160357 | 69 | 204 | 1.7 | 2.6 | 0.00 | 0.00 | 0.00 | 48 | 1014.0 |
| 20260508155857 | 69 | 238 | 0.9 | 2.6 | 0.00 | 0.00 | 0.00 | 50 | 1014.0 |
| 20260508155357 | 68 | 157 | 1.7 | 3.5 | 0.00 | 0.00 | 0.00 | 49 | 1014.0 |
| 20260508154857 | 68 | 270 | 2.6 | 4.3 | 0.00 | 0.00 | 0.00 | 50 | 1014.0 |
| 20260508154356 | 68 | 149 | 1.7 | 3.5 | 0.00 | 0.00 | 0.00 | 50 | 1014.0 |
| 20260508153857 | 68 | 169 | 1.7 | 2.6 | 0.00 | 0.00 | 0.00 | 50 | 1014.0 |
| 20260508153357 | 68 | 169 | 0.9 | 2.6 | 0.00 | 0.00 | 0.00 | 48 | 1014.0 |
| 20260508152857 | 67 | 165 | 0.9 | 2.6 | 0.00 | 0.00 | 0.00 | 51 | 1014.0 |
| 20260508152356 | 67 | 179 | 1.7 | 3.5 | 0.00 | 0.00 | 0.00 | 49 | 1014.0 |
| 20260508151857 | 67 | 186 | 1.7 | 3.5 | 0.00 | 0.00 | 0.00 | 49 | 1014.0 |
| 20260508151356 | 67 | 268 | 1.7 | 4.3 | 0.00 | 0.00 | 0.00 | 49 | 1015.0 |
| 20260508150856 | 67 | 160 | 0.9 | 1.7 | 0.00 | 0.00 | 0.00 | 52 | 1015.0 |
| 20260508150356 | 67 | 177 | 1.7 | 3.5 | 0.00 | 0.00 | 0.00 | 50 | 1015.0 |
| 20260508145858 | 67 | 211 | 0.0 | 0.9 | 0.00 | 0.00 | 0.00 | 50 | 1015.0 |
| 20260508145357 | 66 | 135 | 0.9 | 2.6 | 0.00 | 0.00 | 0.00 | 52 | 1015.0 |
| 20260508144856 | 66 | 149 | 1.7 | 3.5 | 0.00 | 0.00 | 0.00 | 52 | 1015.0 |
| 20260508144357 | 66 | 151 | 1.7 | 2.6 | 0.00 | 0.00 | 0.00 | 53 | 1015.0 |
| 20260508143857 | 66 | 210 | 1.7 | 3.5 | 0.00 | 0.00 | 0.00 | 50 | 1015.0 |
| 20260508143357 | 65 | 169 | 1.7 | 4.3 | 0.00 | 0.00 | 0.00 | 50 | 1015.0 |
| 20260508142857 | 65 | 161 | 1.7 | 3.5 | 0.00 | 0.00 | 0.00 | 51 | 1015.0 |
| 20260508142356 | 65 | 234 | 0.9 | 1.7 | 0.00 | 0.00 | 0.00 | 51 | 1015.0 |
| 20260508141856 | 64 | 173 | 0.9 | 2.6 | 0.00 | 0.00 | 0.00 | 51 | 1015.0 |
| 20260508141357 | 64 | 166 | 1.7 | 4.3 | 0.00 | 0.00 | 0.00 | 51 | 1015.0 |
| 20260508140856 | 64 | 194 | 0.9 | 2.6 | 0.00 | 0.00 | 0.00 | 52 | 1015.0 |
| 20260508140356 | 64 | 145 | 0.9 | 3.5 | 0.00 | 0.00 | 0.00 | 54 | 1015.0 |
| 20260508135857 | 63 | 168 | 0.0 | 1.7 | 0.00 | 0.00 | 0.00 | 53 | 1015.0 |
| 20260508135356 | 63 | 168 | 0.9 | 2.6 | 0.00 | 0.00 | 0.00 | 55 | 1015.0 |
| 20260508134856 | 62 | 115 | 0.0 | 1.7 | 0.00 | 0.00 | 0.00 | 54 | 1015.0 |
| 20260508134356 | 62 | 160 | 0.9 | 3.5 | 0.00 | 0.00 | 0.00 | 57 | 1015.0 |
| 20260508133857 | 61 | 195 | 0.9 | 1.7 | 0.00 | 0.00 | 0.00 | 58 | 1015.0 |
| 20260508133356 | 60 | 288 | 0.0 | 1.7 | 0.00 | 0.00 | 0.00 | 58 | 1015.0 |
| 20260508132856 | 58 | 176 | 0.9 | 1.7 | 0.00 | 0.00 | 0.00 | 60 | 1015.0 |
| 20260508132357 | 57 | 199 | 0.0 | 1.7 | 0.00 | 0.00 | 0.00 | 63 | 1015.0 |
| 20260508131858 | 56 | 183 | 1.7 | 4.3 | 0.00 | 0.00 | 0.00 | 61 | 1015.0 |
| 20260508131356 | 55 | 203 | 0.9 | 1.7 | 0.00 | 0.00 | 0.00 | 65 | 1015.0 |
| 20260508130857 | 53 | 216 | 0.0 | 0.9 | 0.00 | 0.00 | 0.00 | 68 | 1015.0 |
| 20260508130357 | 53 | 175 | 0.0 | 1.7 | 0.00 | 0.00 | 0.00 | 69 | 1015.0 |
| 20260508125856 | 52 | 214 | 0.9 | 1.7 | 0.00 | 0.00 | 0.00 | 72 | 1015.0 |
| 20260508125356 | 51 | 250 | 0.0 | 1.7 | 0.00 | 0.00 | 0.00 | 71 | 1015.0 |
| 20260508124857 | 51 | 200 | 0.0 | 1.7 | 0.00 | 0.00 | 0.00 | 72 | 1015.0 |
| 20260508124356 | 51 | 185 | 0.0 | 1.7 | 0.00 | 0.00 | 0.00 | 71 | 1015.0 |
| 20260508123857 | 50 | 42 | 0.0 | 0.9 | 0.00 | 0.00 | 0.00 | 72 | 1015.0 |
| 20260508123356 | 50 | 198 | 0.0 | 0.9 | 0.00 | 0.00 | 0.00 | 73 | 1015.0 |
| 20260508122856 | 50 | 191 | 0.9 | 1.7 | 0.00 | 0.00 | 0.00 | 71 | 1015.0 |
| 20260508122310 | 49 | 196 | 0.9 | 2.6 | 0.00 | 0.00 | 0.00 | 71 | 1015.0 |
| 20260508121757 | 49 | 170 | 0.0 | 1.7 | 0.00 | 0.00 | 0.00 | 71 | 1015.0 |
| 20260508121256 | 49 | 171 | 0.0 | 1.7 | 0.00 | 0.00 | 0.00 | 73 | 1015.0 |
| 20260508120756 | 48 | 289 | 0.0 | 0.9 | 0.00 | 0.00 | 0.00 | 74 | 1015.0 |
| 20260508120256 | 48 | 176 | 0.0 | 0.9 | 0.00 | 0.00 | 0.00 | 75 | 1015.0 |
| 20260508115757 | 47 | 207 | 0.0 | 0.9 | 0.00 | 0.00 | 0.00 | 75 | 1015.0 |
| 20260508115257 | 47 | 213 | 0.0 | 0.9 | 0.00 | 0.00 | 0.00 | 76 | 1015.0 |
| 20260508114757 | 47 | 80 | 0.0 | 0.9 | 0.00 | 0.00 | 0.00 | 76 | 1015.0 |
| 20260508114256 | 47 | 170 | 0.0 | 1.7 | 0.00 | 0.00 | 0.00 | 77 | 1015.0 |
| 20260508113757 | 47 | 189 | 0.0 | 1.7 | 0.00 | 0.00 | 0.00 | 76 | 1015.0 |
| 20260508113257 | 46 | 144 | 0.0 | 0.9 | 0.00 | 0.00 | 0.00 | 77 | 1015.0 |
| 20260508112757 | 46 | 216 | 0.0 | 0.9 | 0.00 | 0.00 | 0.00 | 77 | 1014.0 |
| 20260508112257 | 46 | 202 | 0.0 | 0.9 | 0.00 | 0.00 | 0.00 | 78 | 1014.0 |
| 20260508111757 | 46 | 0 | 0.0 | 0.0 | 0.00 | 0.00 | 0.00 | 78 | 1014.0 |
| 20260508111258 | 46 | 194 | 0.0 | 0.9 | 0.00 | 0.00 | 0.00 | 81 | 1014.0 |
| 20260508110756 | 46 | 156 | 0.0 | 1.7 | 0.00 | 0.00 | 0.00 | 79 | 1014.0 |
| 20260508110257 | 46 | 270 | 0.0 | 0.9 | 0.00 | 0.00 | 0.00 | 80 | 1014.0 |
| 20260508105756 | 46 | 0 | 0.0 | 0.0 | 0.00 | 0.00 | 0.00 | 80 | 1014.0 |
| 20260508105256 | 46 | 216 | 0.0 | 0.9 | 0.00 | 0.00 | 0.00 | 79 | 1014.0 |
| 20260508104758 | 46 | 0 | 0.0 | 0.0 | 0.00 | 0.00 | 0.00 | 81 | 1014.0 |
| 20260508104257 | 46 | 208 | 0.0 | 0.9 | 0.00 | 0.00 | 0.00 | 81 | 1014.0 |
| 20260508103756 | 46 | 222 | 0.0 | 0.9 | 0.00 | 0.00 | 0.00 | 81 | 1014.0 |
| 20260508103256 | 46 | 0 | 0.0 | 0.0 | 0.00 | 0.00 | 0.00 | 82 | 1014.0 |
| 20260508102756 | 46 | 0 | 0.0 | 0.0 | 0.00 | 0.00 | 0.00 | 81 | 1014.0 |
| 20260508102257 | 46 | 0 | 0.0 | 0.0 | 0.00 | 0.00 | 0.00 | 82 | 1014.0 |
| 20260508101756 | 46 | 0 | 0.0 | 0.0 | 0.00 | 0.00 | 0.00 | 82 | 1014.0 |
| 20260508101256 | 46 | 0 | 0.0 | 0.0 | 0.00 | 0.00 | 0.00 | 83 | 1014.0 |
| 20260508100757 | 46 | 298 | 0.0 | 1.7 | 0.00 | 0.00 | 0.00 | 82 | 1014.0 |
| 20260508100256 | 46 | 0 | 0.0 | 0.0 | 0.00 | 0.00 | 0.00 | 83 | 1014.0 |
| 20260508095756 | 46 | 211 | 0.0 | 0.0 | 0.00 | 0.00 | 0.00 | 83 | 1014.0 |
| 20260508095307 | 46 | 11 | 0.0 | 0.9 | 0.00 | 0.00 | 0.00 | 82 | 1014.0 |
| 20260508094756 | 46 | 124 | 0.0 | 0.9 | 0.00 | 0.00 | 0.00 | 81 | 1014.0 |
| 20260508094257 | 46 | 0 | 0.0 | 0.0 | 0.00 | 0.00 | 0.00 | 81 | 1014.0 |
| 20260508093756 | 45 | 217 | 0.0 | 0.0 | 0.00 | 0.00 | 0.00 | 82 | 1014.0 |
| 20260508093257 | 45 | 283 | 0.0 | 0.0 | 0.00 | 0.00 | 0.00 | 83 | 1014.0 |
| 20260508092758 | 45 | 230 | 0.0 | 0.9 | 0.00 | 0.00 | 0.00 | 85 | 1014.0 |
| 20260508092257 | 44 | 253 | 0.0 | 0.9 | 0.00 | 0.00 | 0.00 | 87 | 1014.0 |
| 20260508091758 | 44 | 266 | 0.0 | 0.9 | 0.00 | 0.00 | 0.00 | 88 | 1014.0 |
| 20260508091256 | 44 | 0 | 0.0 | 0.0 | 0.00 | 0.00 | 0.00 | 90 | 1014.0 |
| 20260508090756 | 43 | 73 | 0.0 | 0.0 | 0.00 | 0.00 | 0.00 | 90 | 1014.0 |
| 20260508090256 | 43 | 0 | 0.0 | 0.0 | 0.00 | 0.00 | 0.00 | 90 | 1014.0 |
| 20260508085756 | 43 | 0 | 0.0 | 0.0 | 0.00 | 0.00 | 0.00 | 92 | 1014.0 |
| 20260508085256 | 43 | 0 | 0.0 | 0.0 | 0.00 | 0.00 | 0.00 | 91 | 1014.0 |
| 20260508084756 | 42 | 259 | 0.0 | 0.0 | 0.00 | 0.00 | 0.00 | 91 | 1014.0 |
| 20260508084257 | 42 | 0 | 0.0 | 0.0 | 0.00 | 0.00 | 0.00 | 90 | 1014.0 |
| 20260508083756 | 42 | 0 | 0.0 | 0.0 | 0.00 | 0.00 | 0.00 | 91 | 1014.0 |
| 20260508083256 | 42 | 68 | 0.0 | 0.9 | 0.00 | 0.00 | 0.00 | 92 | 1014.0 |
| 20260508082757 | 43 | 309 | 0.0 | 0.0 | 0.00 | 0.00 | 0.00 | 91 | 1014.0 |
| 20260508082257 | 43 | 0 | 0.0 | 0.0 | 0.00 | 0.00 | 0.00 | 91 | 1014.0 |
| 20260508081756 | 43 | 0 | 0.0 | 0.0 | 0.00 | 0.00 | 0.00 | 90 | 1014.0 |
| 20260508081256 | 43 | 254 | 0.0 | 0.9 | 0.00 | 0.00 | 0.00 | 89 | 1014.0 |
| 20260508080756 | 43 | 279 | 0.0 | 0.9 | 0.00 | 0.00 | 0.00 | 90 | 1014.0 |
| 20260508080258 | 43 | 0 | 0.0 | 0.0 | 0.00 | 0.00 | 0.00 | 90 | 1014.0 |
| 20260508075756 | 43 | 62 | 0.0 | 0.9 | 0.00 | 0.00 | 0.00 | 89 | 1014.0 |
| 20260508075256 | 43 | 289 | 0.0 | 0.9 | 0.00 | 0.00 | 0.00 | 89 | 1014.0 |
| 20260508074756 | 43 | 269 | 0.9 | 1.7 | 0.00 | 0.00 | 0.00 | 90 | 1014.0 |
| 20260508074257 | 43 | 293 | 0.0 | 0.0 | 0.00 | 0.00 | 0.00 | 91 | 1014.0 |
| 20260508073757 | 42 | 291 | 0.0 | 0.9 | 0.00 | 0.00 | 0.00 | 90 | 1014.0 |
| 20260508073257 | 42 | 69 | 0.0 | 0.0 | 0.00 | 0.00 | 0.00 | 91 | 1014.0 |
| 20260508072756 | 42 | 32 | 0.0 | 0.0 | 0.00 | 0.00 | 0.00 | 91 | 1014.0 |
| 20260508072256 | 42 | 43 | 0.0 | 0.9 | 0.00 | 0.00 | 0.00 | 91 | 1014.0 |
| 20260508071757 | 42 | 91 | 0.0 | 0.9 | 0.00 | 0.00 | 0.00 | 91 | 1014.0 |
| 20260508071257 | 43 | 85 | 0.0 | 0.9 | 0.00 | 0.00 | 0.00 | 89 | 1014.0 |
| 20260508070756 | 43 | 93 | 0.0 | 0.9 | 0.00 | 0.00 | 0.00 | 90 | 1014.0 |
| 20260508070256 | 43 | 95 | 0.0 | 0.9 | 0.00 | 0.00 | 0.00 | 91 | 1014.0 |
| 20260508065757 | 43 | 233 | 0.0 | 0.9 | 0.00 | 0.00 | 0.00 | 90 | 1014.0 |
| 20260508065256 | 43 | 37 | 0.0 | 0.0 | 0.00 | 0.00 | 0.00 | 89 | 1014.0 |
| 20260508064757 | 43 | 316 | 0.0 | 0.9 | 0.00 | 0.00 | 0.00 | 89 | 1014.0 |
| 20260508064256 | 43 | 238 | 0.0 | 0.0 | 0.00 | 0.00 | 0.00 | 90 | 1014.0 |
| 20260508063758 | 43 | 295 | 0.0 | 0.9 | 0.00 | 0.00 | 0.00 | 91 | 1014.0 |
| 20260508063256 | 43 | 355 | 0.0 | 0.0 | 0.00 | 0.00 | 0.00 | 89 | 1014.0 |
| 20260508062757 | 43 | 175 | 0.0 | 0.9 | 0.00 | 0.00 | 0.00 | 89 | 1014.0 |
| 20260508062257 | 43 | 177 | 0.0 | 0.9 | 0.00 | 0.00 | 0.00 | 88 | 1015.0 |
| 20260508061756 | 43 | 303 | 0.0 | 1.7 | 0.00 | 0.00 | 0.00 | 87 | 1015.0 |
| 20260508061257 | 43 | 310 | 0.0 | 0.9 | 0.00 | 0.00 | 0.00 | 88 | 1015.0 |
| 20260508060756 | 44 | 235 | 0.0 | 0.9 | 0.00 | 0.00 | 0.00 | 88 | 1015.0 |
| 20260508060256 | 44 | 310 | 0.0 | 0.0 | 0.00 | 0.00 | 0.00 | 88 | 1015.0 |
| 20260508055756 | 44 | 0 | 0.0 | 0.0 | 0.00 | 0.00 | 0.00 | 87 | 1015.0 |
| 20260508055257 | 44 | 300 | 0.0 | 1.7 | 0.00 | 0.00 | 0.00 | 87 | 1015.0 |
| 20260508054756 | 44 | 0 | 0.0 | 0.0 | 0.00 | 0.00 | 0.00 | 87 | 1015.0 |
| 20260508054256 | 44 | 0 | 0.0 | 0.0 | 0.00 | 0.00 | 0.00 | 86 | 1015.0 |
| 20260508053757 | 44 | 0 | 0.0 | 0.0 | 0.00 | 0.00 | 0.00 | 85 | 1015.0 |
| 20260508053257 | 44 | 204 | 0.0 | 0.9 | 0.00 | 0.00 | 0.00 | 84 | 1015.0 |
| 20260508052757 | 44 | 304 | 0.0 | 0.9 | 0.00 | 0.00 | 0.00 | 84 | 1015.0 |
| 20260508052256 | 45 | 1 | 0.0 | 0.9 | 0.00 | 0.00 | 0.00 | 84 | 1015.0 |
| 20260508051756 | 45 | 116 | 0.0 | 0.9 | 0.00 | 0.00 | 0.00 | 83 | 1015.0 |
| 20260508051256 | 45 | 102 | 0.0 | 0.9 | 0.00 | 0.00 | 0.00 | 81 | 1015.0 |
| 20260508050756 | 46 | 54 | 0.0 | 0.0 | 0.00 | 0.00 | 0.00 | 81 | 1015.0 |
| 20260508050257 | 46 | 271 | 0.9 | 1.7 | 0.00 | 0.00 | 0.00 | 80 | 1015.0 |
| 20260508045756 | 46 | 0 | 0.0 | 0.0 | 0.00 | 0.00 | 0.00 | 81 | 1015.0 |
| 20260508045258 | 46 | 292 | 0.0 | 0.0 | 0.00 | 0.00 | 0.00 | 80 | 1015.0 |
| 20260508044756 | 47 | 348 | 0.0 | 0.9 | 0.00 | 0.00 | 0.00 | 79 | 1015.0 |
| 20260508044256 | 46 | 289 | 0.0 | 0.0 | 0.00 | 0.00 | 0.00 | 75 | 1015.0 |